Time;durP1;ratioP1;P1;durP2;ratioP2;P2;SDS_P1;SDS_P2;PMS_P1;PMS_P2;Temp;Humidity;BMP_temperature;BMP_pressure;BME280_temperature;BME280_humidity;BME280_pressure;Samples;Min_cycle;Max_cycle;Signal;HPM_P1;HPM_P2
2021/06/19 00:01:17;;;;;;;23.50;21.70;;;;;;;28.92;52.06;100772.69;5060211;28;20216;-68
2021/06/19 00:03:42;;;;;;;23.53;21.63;;;;;;;28.13;54.79;100770.59;5060113;28;20162;-68
2021/06/19 00:06:07;;;;;;;22.63;20.97;;;;;;;28.15;54.72;100775.84;5060434;28;20166;-69
2021/06/19 00:08:33;;;;;;;23.00;21.30;;;;;;;28.70;53.02;100784.84;5053541;28;20186;-69
2021/06/19 00:10:58;;;;;;;23.70;22.00;;;;;;;28.63;53.03;100788.84;5040114;28;20293;-68
2021/06/19 00:13:23;;;;;;;21.70;20.00;;;;;;;29.04;51.79;100815.63;5046354;28;20205;-68
2021/06/19 00:15:49;;;;;;;24.03;22.27;;;;;;;27.96;55.11;100798.41;5060083;28;20198;-68
2021/06/19 00:18:14;;;;;;;24.40;22.30;;;;;;;27.43;56.65;100771.31;5042417;28;20284;-68
2021/06/19 00:20:39;;;;;;;23.37;21.67;;;;;;;27.71;56.14;100759.75;5040217;28;20543;-68
2021/06/19 00:23:05;;;;;;;22.80;21.20;;;;;;;28.20;54.28;100771.91;5039664;28;20203;-68
2021/06/19 00:25:30;;;;;;;24.27;22.47;;;;;;;28.37;53.94;100769.94;5039616;28;20293;-68
2021/06/19 00:27:56;;;;;;;23.70;21.80;;;;;;;28.15;54.75;100752.56;5039693;28;20189;-68
2021/06/19 00:30:22;;;;;;;23.97;22.07;;;;;;;27.90;54.95;100748.75;5041038;28;20177;-69
2021/06/19 00:32:48;;;;;;;26.80;24.70;;;;;;;28.61;53.30;100745.19;5039343;28;20163;-69
2021/06/19 00:35:14;;;;;;;33.73;31.20;;;;;;;28.66;52.96;100753.78;5040127;28;20689;-69
2021/06/19 00:37:40;;;;;;;22.53;20.93;;;;;;;28.94;52.28;100765.38;5039541;28;20475;-68
2021/06/19 00:40:08;;;;;;;24.30;22.40;;;;;;;28.52;53.47;100762.72;5057721;28;20447;-68
2021/06/19 00:42:33;;;;;;;24.50;22.70;;;;;;;27.76;55.74;100756.78;5056684;28;20185;-67
2021/06/19 00:44:59;;;;;;;24.17;22.27;;;;;;;27.42;56.73;100750.84;5059360;28;20515;-68
2021/06/19 00:47:25;;;;;;;23.80;22.00;;;;;;;28.18;54.44;100746.16;5059257;28;20170;-68
2021/06/19 00:49:51;;;;;;;23.03;21.23;;;;;;;28.65;52.85;100754.78;5059607;28;20424;-68
2021/06/19 00:52:16;;;;;;;23.30;21.50;;;;;;;28.82;52.41;100746.47;5052431;28;20451;-68
2021/06/19 00:54:41;;;;;;;24.83;22.93;;;;;;;28.17;54.32;100737.25;5039464;28;20247;-68
2021/06/19 00:57:08;;;;;;;24.13;22.00;;;;;;;27.04;57.81;100722.72;5046433;28;20198;-68
2021/06/19 00:59:35;;;;;;;24.53;22.50;;;;;;;27.94;55.29;100736.03;5058609;28;20165;-68
2021/06/19 01:02:00;;;;;;;25.37;23.50;;;;;;;28.18;53.88;100746.16;5043012;28;20451;-67
2021/06/19 01:04:25;;;;;;;39.93;36.27;;;;;;;28.40;53.92;100740.25;5039180;28;20408;-67
2021/06/19 01:06:51;;;;;;;24.20;22.40;;;;;;;28.72;52.87;100739.97;5038017;28;20182;-68
2021/06/19 01:09:16;;;;;;;26.20;24.17;;;;;;;28.62;52.80;100739.72;5038734;28;20198;-68
2021/06/19 01:11:41;;;;;;;24.87;22.97;;;;;;;28.89;52.00;100720.91;5048153;28;20170;-70
2021/06/19 01:14:07;;;;;;;24.43;22.57;;;;;;;28.79;52.98;100719.81;5058423;28;20567;-70
2021/06/19 01:16:34;;;;;;;25.37;23.57;;;;;;;28.96;51.59;100724.03;5039432;28;20218;-68
2021/06/19 01:19:00;;;;;;;26.80;24.70;;;;;;;28.67;53.03;100726.00;5041812;28;20587;-70
2021/06/19 01:21:29;;;;;;;29.30;26.80;;;;;;;28.11;54.53;100729.59;5038481;28;20443;-70
2021/06/19 01:23:55;;;;;;;23.87;22.10;;;;;;;27.89;55.08;100725.59;5038597;28;20420;-69
2021/06/19 01:26:25;;;;;;;26.77;24.77;;;;;;;28.47;53.32;100727.28;5038351;28;20477;-69
2021/06/19 01:28:51;;;;;;;24.87;23.07;;;;;;;28.31;53.77;100722.09;5038380;28;20193;-68
2021/06/19 01:31:18;;;;;;;34.00;31.50;;;;;;;28.20;54.12;100722.81;5038367;28;20536;-68
2021/06/19 01:33:45;;;;;;;31.00;28.20;;;;;;;28.20;54.55;100726.34;5039200;28;20437;-68
2021/06/19 01:36:10;;;;;;;29.00;26.70;;;;;;;28.44;53.53;100725.66;5038666;28;20539;-69
2021/06/19 01:38:44;;;;;;;26.27;24.27;;;;;;;28.21;54.34;100720.03;5038888;28;20607;-69
2021/06/19 01:41:24;;;;;;;26.37;24.47;;;;;;;28.01;54.90;100723.97;5056156;28;20198;-69
2021/06/19 01:44:00;;;;;;;26.07;23.97;;;;;;;28.24;53.56;100729.69;5050014;28;20451;-69
2021/06/19 01:46:26;;;;;;;26.20;24.00;;;;;;;28.11;54.61;100732.28;5040861;28;20439;-69
2021/06/19 01:48:51;;;;;;;24.43;22.63;;;;;;;28.31;54.07;100725.63;5041151;28;20444;-68
2021/06/19 01:51:16;;;;;;;24.03;22.33;;;;;;;28.54;53.39;100726.78;5038816;28;20162;-69
2021/06/19 01:53:43;;;;;;;25.00;23.20;;;;;;;28.62;53.10;100720.94;5039232;28;20174;-69
2021/06/19 01:56:10;;;;;;;25.27;23.17;;;;;;;28.25;54.46;100714.44;5046343;28;20282;-69
2021/06/19 01:58:36;;;;;;;27.43;25.33;;;;;;;28.45;53.72;100714.00;5058110;28;20452;-70
2021/06/19 02:01:03;;;;;;;25.97;24.00;;;;;;;28.45;53.73;100711.31;5058995;28;20741;-69
2021/06/19 02:03:28;;;;;;;29.73;27.47;;;;;;;28.41;53.55;100709.78;5041641;28;20182;-69
2021/06/19 02:05:54;;;;;;;35.23;32.60;;;;;;;28.03;54.88;100707.81;5038478;28;20516;-68
2021/06/19 02:08:21;;;;;;;33.93;31.23;;;;;;;28.01;55.17;100715.06;5038238;28;20184;-69
2021/06/19 02:10:46;;;;;;;27.33;25.33;;;;;;;28.40;53.96;100714.31;5038324;28;20615;-68
2021/06/19 02:13:12;;;;;;;28.03;25.93;;;;;;;28.41;53.89;100704.44;5038131;28;20463;-68
2021/06/19 02:15:39;;;;;;;28.90;26.63;;;;;;;28.28;54.24;100701.72;5037938;28;20197;-69
2021/06/19 02:18:04;;;;;;;30.10;27.43;;;;;;;28.23;54.48;100696.63;5038162;28;20597;-68
2021/06/19 02:20:30;;;;;;;27.80;25.70;;;;;;;28.46;53.26;100702.31;5038501;28;20437;-68
2021/06/19 02:22:55;;;;;;;29.40;27.10;;;;;;;28.13;54.38;100703.59;5037738;28;20190;-67
2021/06/19 02:25:23;;;;;;;26.53;24.53;;;;;;;28.40;54.04;100692.84;5037261;28;20222;-67
2021/06/19 02:27:54;;;;;;;27.73;25.53;;;;;;;28.57;53.41;100701.59;5038434;28;20171;-66
2021/06/19 02:30:23;;;;;;;27.03;24.87;;;;;;;28.51;53.10;100704.66;5037833;28;20451;-67
2021/06/19 02:32:48;;;;;;;29.40;27.00;;;;;;;28.28;53.89;100699.03;5037765;28;20429;-67
2021/06/19 02:35:14;;;;;;;28.33;26.33;;;;;;;28.39;53.43;100709.06;5038304;28;20526;-68
2021/06/19 02:37:39;;;;;;;28.50;26.40;;;;;;;28.37;53.37;100713.63;5037439;28;20617;-67
2021/06/19 02:40:05;;;;;;;31.03;28.17;;;;;;;28.19;54.28;100713.03;5037699;28;20210;-67
2021/06/19 02:42:31;;;;;;;26.73;24.53;;;;;;;28.22;54.05;100716.34;5038208;28;20193;-67
2021/06/19 02:44:56;;;;;;;25.90;23.80;;;;;;;28.39;53.54;100711.72;5037478;28;20476;-67
2021/06/19 02:47:21;;;;;;;28.53;26.53;;;;;;;27.88;55.67;100713.16;5037192;28;20182;-68
2021/06/19 02:49:47;;;;;;;26.47;24.60;;;;;;;28.27;54.04;100713.41;5038196;28;20174;-68
2021/06/19 02:52:12;;;;;;;26.13;24.30;;;;;;;28.17;54.67;100706.91;5056300;28;20173;-67
2021/06/19 02:54:40;;;;;;;26.50;24.40;;;;;;;28.21;53.93;100714.66;5057703;28;20549;-68
2021/06/19 02:57:08;;;;;;;26.63;24.43;;;;;;;28.07;54.86;100728.09;5057865;28;20170;-68
2021/06/19 02:59:34;;;;;;;27.10;25.10;;;;;;;28.30;54.22;100723.91;5054366;28;21731;-68
2021/06/19 03:01:59;;;;;;;26.07;23.60;;;;;;;28.45;53.59;100727.41;5040302;28;20452;-68
2021/06/19 03:04:24;;;;;;;25.27;23.47;;;;;;;28.25;54.06;100728.69;5037927;28;20178;-67
2021/06/19 03:06:50;;;;;;;26.83;24.83;;;;;;;28.52;53.51;100728.75;5037415;28;20178;-69
2021/06/19 03:09:15;;;;;;;27.50;25.10;;;;;;;28.49;53.53;100726.22;5037399;28;20170;-68
2021/06/19 03:11:40;;;;;;;26.80;24.80;;;;;;;28.66;53.25;100722.47;5037206;28;20178;-67
2021/06/19 03:14:05;;;;;;;25.00;23.30;;;;;;;28.64;53.09;100731.59;5040822;28;20213;-68
2021/06/19 03:16:32;;;;;;;26.80;24.93;;;;;;;28.65;53.14;100733.31;5040360;28;20208;-68
2021/06/19 03:18:59;;;;;;;27.07;25.10;;;;;;;28.67;53.03;100728.69;5041693;28;20189;-68
2021/06/19 03:21:24;;;;;;;28.33;26.13;;;;;;;28.90;52.09;100728.00;5041094;28;20488;-67
2021/06/19 03:23:49;;;;;;;25.83;23.97;;;;;;;28.79;52.37;100722.50;5040766;28;20468;-67
2021/06/19 03:26:14;;;;;;;27.10;25.10;;;;;;;28.77;52.48;100727.13;5041173;28;20305;-68
2021/06/19 03:28:40;;;;;;;30.10;27.70;;;;;;;28.80;52.86;100726.91;5041112;28;20528;-67
2021/06/19 03:31:05;;;;;;;28.37;26.30;;;;;;;28.68;53.01;100723.22;5041304;28;20178;-67
2021/06/19 03:33:30;;;;;;;28.00;25.40;;;;;;;28.64;53.50;100713.66;5041874;28;20228;-69
2021/06/19 03:35:55;;;;;;;28.30;26.10;;;;;;;28.97;52.37;100717.72;5040508;28;20202;-68
2021/06/19 03:38:21;;;;;;;28.07;26.00;;;;;;;28.84;53.04;100715.00;5050790;28;20554;-68
2021/06/19 03:40:46;;;;;;;27.07;25.00;;;;;;;29.04;52.48;100723.53;5060442;28;20177;-68
2021/06/19 03:43:11;;;;;;;25.47;23.50;;;;;;;29.36;51.29;100725.81;5043934;28;20193;-68
2021/06/19 03:45:37;;;;;;;27.40;25.03;;;;;;;29.44;51.08;100711.88;5040674;28;20209;-68
2021/06/19 03:48:04;;;;;;;25.67;23.87;;;;;;;29.93;49.67;100718.25;5040360;28;20571;-68
2021/06/19 03:50:30;;;;;;;26.33;23.90;;;;;;;29.74;50.43;100717.75;5039379;28;20241;-68
2021/06/19 03:52:56;;;;;;;25.50;23.30;;;;;;;29.37;51.72;100725.72;5040336;28;20412;-68
2021/06/19 03:55:23;;;;;;;24.97;23.00;;;;;;;29.83;50.54;100715.38;5039644;28;20202;-68
2021/06/19 03:57:48;;;;;;;23.93;22.03;;;;;;;30.16;49.18;100720.16;5039350;28;20424;-68
2021/06/19 04:00:15;;;;;;;26.63;24.53;;;;;;;30.13;49.12;100722.19;5040615;28;20443;-69
2021/06/19 04:02:41;;;;;;;25.93;23.83;;;;;;;30.06;49.41;100724.47;5040000;28;20170;-68
2021/06/19 04:05:07;;;;;;;23.90;21.80;;;;;;;30.30;49.08;100723.66;5041109;28;20444;-69
2021/06/19 04:07:33;;;;;;;26.53;24.53;;;;;;;30.44;48.32;100728.84;5042407;28;20231;-68
2021/06/19 04:09:58;;;;;;;23.27;21.23;;;;;;;30.23;49.00;100729.47;5040343;28;20484;-68
2021/06/19 04:12:23;;;;;;;23.60;21.77;;;;;;;29.60;50.87;100725.91;5040019;28;20182;-68
2021/06/19 04:14:49;;;;;;;23.67;21.30;;;;;;;29.88;50.00;100732.06;5053720;28;20213;-68
2021/06/19 04:17:15;;;;;;;24.30;22.30;;;;;;;30.32;48.69;100727.91;5060024;28;20173;-68
2021/06/19 04:19:42;;;;;;;22.40;20.60;;;;;;;30.28;48.76;100731.81;5060092;28;20421;-68
2021/06/19 04:22:07;;;;;;;24.80;22.43;;;;;;;30.05;49.50;100737.06;5060117;28;20829;-68
2021/06/19 04:24:33;;;;;;;24.60;22.67;;;;;;;29.79;50.84;100744.28;5046686;28;20485;-68
2021/06/19 04:26:59;;;;;;;24.90;22.67;;;;;;;29.36;51.22;100756.25;5041085;28;20170;-68
2021/06/19 04:29:27;;;;;;;24.77;22.70;;;;;;;29.12;52.15;100756.06;5039572;28;20417;-68
2021/06/19 04:31:53;;;;;;;24.03;22.13;;;;;;;29.22;51.56;100762.50;5039709;28;20197;-68
2021/06/19 04:34:18;;;;;;;24.13;22.03;;;;;;;29.20;51.97;100761.78;5039739;28;20440;-68
2021/06/19 04:36:44;;;;;;;24.77;22.77;;;;;;;29.34;51.17;100768.06;5039966;28;20511;-69
2021/06/19 04:39:09;;;;;;;27.30;24.80;;;;;;;29.07;52.15;100760.88;5039905;28;20520;-68
2021/06/19 04:44:29;;;;;;;25.83;23.80;;;;;;;29.21;51.96;100762.63;5040181;28;20244;-67
2021/06/19 04:46:54;;;;;;;28.53;26.33;;;;;;;29.04;52.97;100758.41;5039751;28;20433;-68
2021/06/19 04:49:20;;;;;;;25.60;23.40;;;;;;;29.32;51.75;100764.59;5039514;28;20409;-68
2021/06/19 04:51:45;;;;;;;25.63;23.70;;;;;;;29.67;50.40;100766.66;5039215;28;20163;-68
2021/06/19 04:54:12;;;;;;;24.73;22.70;;;;;;;29.54;50.88;100770.19;5039427;28;20221;-69
2021/06/19 04:56:39;;;;;;;25.53;22.90;;;;;;;29.18;52.44;100768.22;5039692;28;20205;-68
2021/06/19 04:59:05;;;;;;;25.80;23.70;;;;;;;29.66;50.75;100775.66;5039276;28;20445;-69
2021/06/19 05:01:30;;;;;;;27.27;24.97;;;;;;;29.66;50.29;100770.28;5043213;28;20674;-69
2021/06/19 05:03:55;;;;;;;27.33;25.13;;;;;;;29.25;51.61;100769.53;5055300;28;20261;-68
2021/06/19 05:06:21;;;;;;;27.23;24.87;;;;;;;29.65;50.29;100766.75;5039169;28;20174;-68
2021/06/19 05:08:46;;;;;;;27.23;25.33;;;;;;;29.69;50.60;100775.47;5040233;28;20192;-69
2021/06/19 05:11:11;;;;;;;26.60;24.60;;;;;;;29.57;50.67;100775.34;5039210;28;20232;-69
2021/06/19 05:13:37;;;;;;;26.20;24.03;;;;;;;29.89;50.06;100774.94;5042350;28;20201;-67
2021/06/19 05:16:02;;;;;;;27.50;25.40;;;;;;;30.26;48.71;100778.63;5047167;28;20204;-67
2021/06/19 05:18:27;;;;;;;22.67;20.87;;;;;;;30.06;49.70;100786.31;5048276;28;20189;-68
2021/06/19 05:20:53;;;;;;;27.50;25.10;;;;;;;29.82;50.43;100781.69;5038921;28;20241;-67
2021/06/19 05:23:18;;;;;;;27.93;25.73;;;;;;;29.93;50.32;100790.84;5048758;28;20182;-68
2021/06/19 05:25:44;;;;;;;28.80;26.70;;;;;;;30.03;49.82;100783.84;5051875;28;20221;-68
2021/06/19 05:28:09;;;;;;;29.70;27.03;;;;;;;29.56;51.23;100794.25;5058634;28;20196;-68
2021/06/19 05:30:34;;;;;;;30.50;28.03;;;;;;;29.41;51.42;100796.19;5052359;28;20592;-68
2021/06/19 05:32:59;;;;;;;28.57;26.10;;;;;;;29.96;50.31;100790.59;5038576;28;20258;-67
2021/06/19 05:35:25;;;;;;;28.33;26.30;;;;;;;29.37;51.89;100800.06;5055843;28;20606;-68
2021/06/19 05:37:51;;;;;;;29.20;26.90;;;;;;;29.00;52.87;100803.38;5045416;28;20182;-67
2021/06/19 05:40:17;;;;;;;32.27;29.87;;;;;;;29.47;51.76;100805.63;5047064;28;20192;-71
2021/06/19 05:42:42;;;;;;;30.07;27.50;;;;;;;31.03;47.94;100803.44;5054171;28;20424;-69
2021/06/19 05:45:08;;;;;;;29.80;27.70;;;;;;;30.99;48.14;100811.84;5038645;28;20174;-70
2021/06/19 05:47:34;;;;;;;27.43;25.43;;;;;;;30.56;49.28;100814.03;5043293;28;20177;-65
2021/06/19 05:49:59;;;;;;;28.00;25.90;;;;;;;31.12;48.00;100823.44;5057566;28;20458;-78
2021/06/19 05:52:26;;;;;;;28.20;26.10;;;;;;;31.96;44.96;100825.06;5044947;28;20188;-72
2021/06/19 05:54:51;;;;;;;28.33;26.23;;;;;;;31.86;45.20;100822.25;5058166;28;20174;-73
2021/06/19 05:57:16;;;;;;;26.63;24.73;;;;;;;32.25;44.67;100828.16;5057978;28;20412;-74
2021/06/19 05:59:42;;;;;;;27.67;25.37;;;;;;;32.54;43.54;100822.22;5049574;28;20178;-71
2021/06/19 06:02:08;;;;;;;27.47;25.37;;;;;;;30.27;48.92;100826.06;5053862;28;20182;-70
2021/06/19 06:04:34;;;;;;;30.20;28.07;;;;;;;29.65;50.55;100833.06;5048853;28;20180;-71
2021/06/19 06:06:59;;;;;;;27.33;25.10;;;;;;;31.51;46.22;100831.25;5038070;28;20178;-71
2021/06/19 06:09:25;;;;;;;28.57;26.57;;;;;;;31.81;45.28;100836.13;5046191;28;20433;-70
2021/06/19 06:11:50;;;;;;;27.23;25.23;;;;;;;32.54;43.49;100833.88;5037719;28;20179;-71
2021/06/19 06:14:16;;;;;;;26.60;24.60;;;;;;;32.87;42.73;100834.78;5037809;28;20213;-70
2021/06/19 06:16:41;;;;;;;25.50;23.30;;;;;;;32.99;42.43;100832.03;5037418;28;20206;-71
2021/06/19 06:19:07;;;;;;;23.07;21.40;;;;;;;32.73;42.64;100826.97;5041636;28;20626;-70
2021/06/19 06:21:32;;;;;;;22.90;20.73;;;;;;;33.26;41.66;100830.72;5046028;28;20198;-69
2021/06/19 06:23:57;;;;;;;22.00;20.30;;;;;;;32.83;42.05;100835.19;5037932;28;20261;-71
2021/06/19 06:26:22;;;;;;;21.97;20.30;;;;;;;33.06;41.31;100833.25;5037646;28;20224;-70
2021/06/19 06:28:48;;;;;;;19.80;18.37;;;;;;;33.10;41.65;100831.13;5037621;28;20443;-68
2021/06/19 06:31:13;;;;;;;19.73;18.13;;;;;;;32.91;41.94;100843.50;5037390;28;20166;-68
2021/06/19 06:33:38;;;;;;;18.17;16.43;;;;;;;33.26;41.17;100839.72;5037869;28;20224;-70
2021/06/19 06:36:04;;;;;;;17.57;16.07;;;;;;;34.12;38.81;100850.31;5038586;28;20328;-69
2021/06/19 06:38:30;;;;;;;17.57;16.17;;;;;;;34.66;37.20;100850.94;5042421;28;20566;-68
2021/06/19 06:40:55;;;;;;;17.13;15.70;;;;;;;35.24;36.18;100847.41;5037725;28;20224;-69
2021/06/19 06:43:20;;;;;;;16.53;15.00;;;;;;;36.03;35.28;100845.41;5045369;28;20194;-68
2021/06/19 06:45:45;;;;;;;16.00;14.60;;;;;;;34.97;36.06;100850.00;5053286;28;20300;-68
2021/06/19 06:48:11;;;;;;;14.03;12.67;;;;;;;35.28;35.99;100844.41;5057237;28;20547;-68
2021/06/19 06:50:37;;;;;;;14.00;13.00;;;;;;;35.86;34.38;100840.81;5062073;28;20170;-68
2021/06/19 06:53:02;;;;;;;12.97;11.67;;;;;;;36.17;33.54;100844.09;5061293;28;20173;-68
2021/06/19 06:55:27;;;;;;;13.87;12.57;;;;;;;35.16;35.13;100847.28;5061328;28;20248;-67
2021/06/19 06:57:53;;;;;;;12.10;11.10;;;;;;;35.49;34.88;100853.25;5061791;28;20169;-68
2021/06/19 07:00:19;;;;;;;11.87;10.77;;;;;;;36.19;33.52;100849.38;5061336;28;20204;-68
2021/06/19 07:02:44;;;;;;;12.33;10.50;;;;;;;35.98;33.47;100857.72;5059739;28;20193;-67
2021/06/19 07:05:11;;;;;;;11.43;10.20;;;;;;;35.97;33.29;100856.03;5061308;28;20510;-68
2021/06/19 07:07:37;;;;;;;12.23;10.93;;;;;;;36.66;32.61;100862.84;5061453;28;20257;-68
2021/06/19 07:10:07;;;;;;;11.40;10.30;;;;;;;36.51;32.91;100859.78;5061594;28;20877;-69
2021/06/19 07:12:33;;;;;;;11.47;10.43;;;;;;;35.79;33.95;100862.22;5059564;28;20438;-69
2021/06/19 07:14:58;;;;;;;10.63;9.80;;;;;;;35.16;34.96;100868.13;5057129;28;20419;-68
2021/06/19 07:17:24;;;;;;;10.17;9.10;;;;;;;36.14;32.94;100860.66;5057437;28;20204;-69
2021/06/19 07:19:49;;;;;;;9.83;8.53;;;;;;;36.66;31.45;100871.00;5041468;28;20170;-68
2021/06/19 07:22:14;;;;;;;7.90;7.20;;;;;;;36.77;30.72;100864.50;5041097;28;20446;-68
2021/06/19 07:24:40;;;;;;;9.30;7.60;;;;;;;36.89;30.35;100862.44;5041032;28;20253;-69
2021/06/19 07:27:05;;;;;;;8.50;7.73;;;;;;;36.99;30.33;100867.78;5041412;28;20202;-69
2021/06/19 07:29:31;;;;;;;7.80;7.00;;;;;;;36.92;30.95;100875.69;5040869;28;20257;-68
2021/06/19 07:31:56;;;;;;;8.83;7.50;;;;;;;38.23;28.81;100872.28;5041929;28;20174;-68
2021/06/19 07:34:22;;;;;;;6.80;6.27;;;;;;;36.75;29.81;100878.22;5041308;28;20166;-68
2021/06/19 07:36:47;;;;;;;7.23;5.80;;;;;;;36.89;29.10;100873.31;5040730;28;20216;-68
2021/06/19 07:39:13;;;;;;;6.70;5.43;;;;;;;36.84;29.75;100870.19;5040815;28;20228;-67
2021/06/19 07:41:39;;;;;;;6.00;5.50;;;;;;;36.63;29.15;100874.03;5041048;28;20320;-69
2021/06/19 07:44:05;;;;;;;6.30;5.70;;;;;;;37.72;28.22;100886.56;5040674;28;20841;-72
2021/06/19 07:46:30;;;;;;;7.17;6.47;;;;;;;36.69;29.61;100886.97;5055931;28;20190;-69
2021/06/19 07:48:55;;;;;;;7.10;5.90;;;;;;;37.39;28.30;100888.22;5060669;28;20416;-70
2021/06/19 07:51:21;;;;;;;9.73;5.23;;;;;;;37.54;27.78;100873.03;5060193;28;20185;-69
2021/06/19 07:53:46;;;;;;;5.40;5.00;;;;;;;37.69;27.55;100886.91;5060116;28;20181;-69
2021/06/19 07:56:11;;;;;;;4.60;4.30;;;;;;;36.40;28.69;100885.28;5060733;28;20201;-68
2021/06/19 07:58:37;;;;;;;4.47;3.90;;;;;;;36.67;27.57;100891.72;5059176;28;20573;-68
2021/06/19 08:01:02;;;;;;;6.00;4.90;;;;;;;36.36;27.96;100883.88;5058293;28;20219;-68
2021/06/19 08:03:27;;;;;;;4.67;4.37;;;;;;;36.03;28.66;100901.56;5058998;28;20197;-68
2021/06/19 08:05:53;;;;;;;5.00;4.20;;;;;;;37.16;27.01;100894.09;5059758;28;20181;-69
2021/06/19 08:08:18;;;;;;;4.60;4.13;;;;;;;36.87;28.01;100892.47;5060055;28;20268;-69
2021/06/19 08:10:43;;;;;;;5.30;4.10;;;;;;;37.01;27.27;100893.81;5048028;28;20255;-69
2021/06/19 08:13:09;;;;;;;4.80;4.40;;;;;;;37.13;27.39;100890.84;5055034;28;20184;-69
2021/06/19 08:15:35;;;;;;;6.50;4.07;;;;;;;37.72;26.82;100891.19;5044640;28;20479;-70
2021/06/19 08:18:01;;;;;;;4.30;3.90;;;;;;;37.47;26.78;100895.56;5046174;28;20177;-69
2021/06/19 08:20:26;;;;;;;4.10;3.70;;;;;;;37.11;26.67;100904.59;5044319;28;20468;-69
2021/06/19 08:22:52;;;;;;;3.90;3.60;;;;;;;36.93;26.71;100901.88;5041313;28;20528;-68
2021/06/19 08:25:18;;;;;;;4.40;4.00;;;;;;;37.56;25.72;100908.22;5049332;28;20229;-69
2021/06/19 08:27:44;;;;;;;4.07;3.53;;;;;;;37.67;24.97;100905.28;5039290;28;20178;-68
2021/06/19 08:30:10;;;;;;;4.60;3.63;;;;;;;38.39;23.96;100910.50;5039325;28;20479;-68
2021/06/19 08:32:35;;;;;;;3.87;3.50;;;;;;;37.96;24.59;100906.00;5039195;28;20174;-68
2021/06/19 08:35:00;;;;;;;4.37;3.27;;;;;;;37.35;26.12;100908.59;5038979;28;20725;-67
2021/06/19 08:37:26;;;;;;;4.00;3.20;;;;;;;36.88;25.79;100901.47;5044036;28;20173;-68
2021/06/19 08:39:52;;;;;;;3.40;3.10;;;;;;;36.47;25.75;100909.97;5050943;28;20192;-68
2021/06/19 08:42:17;;;;;;;3.50;3.20;;;;;;;37.17;25.68;100903.97;5053830;28;20199;-68
2021/06/19 08:44:44;;;;;;;3.60;3.30;;;;;;;36.90;26.10;100908.47;5059478;28;20165;-68
2021/06/19 08:47:10;;;;;;;6.37;3.67;;;;;;;38.76;24.18;100908.44;5039108;28;20173;-68
2021/06/19 08:49:36;;;;;;;5.03;3.63;;;;;;;37.99;25.05;100902.94;5039046;28;20458;-69
2021/06/19 08:52:02;;;;;;;4.20;3.40;;;;;;;37.14;26.20;100911.59;5050751;28;20192;-69
2021/06/19 08:54:38;;;;;;;4.53;3.67;;;;;;;36.26;27.60;100912.91;5057328;28;20435;-69
2021/06/19 08:57:04;;;;;;;6.63;4.10;;;;;;;36.73;27.02;100910.09;5044904;28;20259;-69
2021/06/19 08:59:29;;;;;;;4.70;4.23;;;;;;;37.28;26.35;100910.16;5039537;28;20432;-67
2021/06/19 09:01:55;;;;;;;4.10;3.80;;;;;;;35.95;28.26;100913.16;5038688;28;20420;-69
2021/06/19 09:04:20;;;;;;;6.50;3.83;;;;;;;35.75;28.85;100912.31;5041354;28;20211;-69
2021/06/19 09:06:46;;;;;;;4.67;4.10;;;;;;;33.95;30.94;100927.56;5043667;28;20206;-66
2021/06/19 09:09:15;;;;;;;4.93;4.03;;;;;;;34.68;29.39;100935.59;5037767;28;20193;-68
2021/06/19 09:11:46;;;;;;;4.27;3.97;;;;;;;36.28;27.40;100929.91;5038598;28;20190;-70
2021/06/19 09:14:18;;;;;;;4.00;3.70;;;;;;;36.61;27.06;100929.50;5038602;28;20428;-68
2021/06/19 09:17:00;;;;;;;4.67;4.23;;;;;;;36.68;26.86;100930.59;5050437;28;20569;-68
2021/06/19 09:19:36;;;;;;;4.40;3.70;;;;;;;36.46;27.05;100927.28;5041793;28;20427;-69
2021/06/19 09:22:14;;;;;;;4.40;4.00;;;;;;;36.84;27.20;100924.53;5057008;28;20411;-67
2021/06/19 09:24:56;;;;;;;4.03;3.63;;;;;;;36.39;27.76;100934.31;5045644;28;20555;-66
2021/06/19 09:27:34;;;;;;;4.03;3.63;;;;;;;36.31;27.07;100935.03;5045306;28;20531;-68
2021/06/19 09:30:19;;;;;;;5.90;3.40;;;;;;;36.57;27.96;100937.09;5039102;28;20907;-67
2021/06/19 09:32:48;;;;;;;8.43;4.00;;;;;;;36.82;27.30;100943.72;5038699;28;20416;-68
2021/06/19 09:35:16;;;;;;;4.17;3.87;;;;;;;35.58;28.80;100955.44;5038422;28;20539;-67
2021/06/19 09:37:42;;;;;;;4.47;3.90;;;;;;;35.20;30.59;100943.56;5038527;28;20451;-70
2021/06/19 09:40:34;;;;;;;4.30;3.90;;;;;;;35.33;29.81;100947.88;5038532;28;20416;-69
2021/06/19 09:43:21;;;;;;;4.27;3.90;;;;;;;35.33;29.15;100953.28;5039126;28;20437;-68
2021/06/19 09:46:08;;;;;;;4.23;3.80;;;;;;;35.63;29.34;100952.31;5039229;28;20467;-69
2021/06/19 09:48:35;;;;;;;4.33;3.90;;;;;;;35.80;29.06;100952.56;5038475;28;20453;-69
2021/06/19 09:51:21;;;;;;;4.37;3.97;;;;;;;35.07;29.90;100960.09;5044027;28;20475;-68
2021/06/19 09:53:49;;;;;;;5.47;4.23;;;;;;;32.67;33.50;100960.59;5057978;28;20689;-67
2021/06/19 09:56:19;;;;;;;4.40;4.10;;;;;;;34.69;30.16;100966.25;5058237;28;20470;-67
2021/06/19 09:58:55;;;;;;;5.07;4.60;;;;;;;34.83;30.44;100960.47;5058180;28;20420;-69
2021/06/19 10:01:33;;;;;;;4.20;3.90;;;;;;;35.97;28.52;100951.00;5053268;28;20421;-70
2021/06/19 10:03:59;;;;;;;4.40;4.00;;;;;;;35.36;28.89;100958.47;5038014;28;20431;-68
2021/06/19 10:06:25;;;;;;;4.17;3.80;;;;;;;34.50;30.06;100962.44;5038232;28;20806;-69
2021/06/19 10:08:52;;;;;;;4.63;3.87;;;;;;;34.28;30.96;100966.19;5042001;28;20205;-69
2021/06/19 10:11:19;;;;;;;5.10;4.10;;;;;;;36.48;27.56;100957.88;5048185;28;20437;-70
2021/06/19 10:13:45;;;;;;;5.70;3.93;;;;;;;35.81;28.68;100965.13;5058332;28;20404;-67
2021/06/19 10:16:14;;;;;;;4.00;3.70;;;;;;;35.41;28.77;100964.28;5040262;28;20468;-68
2021/06/19 10:18:41;;;;;;;6.70;3.63;;;;;;;36.15;27.78;100957.38;5041971;28;20424;-67
2021/06/19 10:21:07;;;;;;;4.70;3.77;;;;;;;35.97;27.70;100960.00;5057211;28;20412;-67
2021/06/19 10:23:33;;;;;;;3.87;3.57;;;;;;;35.28;28.62;100955.53;5057873;28;20431;-67
2021/06/19 10:25:59;;;;;;;4.00;3.70;;;;;;;35.77;27.79;100966.44;5057577;28;20467;-67
2021/06/19 10:28:25;;;;;;;5.70;3.90;;;;;;;35.44;28.60;100964.03;5051925;28;20292;-67
2021/06/19 10:30:51;;;;;;;4.40;4.00;;;;;;;36.29;27.63;100957.91;5057081;28;20445;-68
2021/06/19 10:33:28;;;;;;;4.63;3.60;;;;;;;35.28;28.17;100958.25;5055364;28;20264;-67
2021/06/19 10:35:55;;;;;;;3.63;3.43;;;;;;;35.46;28.63;100962.00;5038601;28;20766;-68
2021/06/19 10:38:20;;;;;;;4.60;3.60;;;;;;;34.85;29.26;100953.06;5039110;28;20578;-67
2021/06/19 10:40:58;;;;;;;4.07;3.73;;;;;;;34.58;29.08;100957.22;5037954;28;20512;-68
2021/06/19 10:43:23;;;;;;;4.40;3.73;;;;;;;35.94;27.85;100959.41;5037008;28;20185;-67
2021/06/19 10:45:50;;;;;;;4.07;3.77;;;;;;;35.62;28.43;100966.00;5037728;28;20642;-68
2021/06/19 10:48:17;;;;;;;4.20;3.80;;;;;;;35.58;28.59;100947.28;5037161;28;20166;-67
2021/06/19 10:50:45;;;;;;;4.63;4.20;;;;;;;35.61;29.19;100950.75;5037913;28;20413;-68
2021/06/19 10:53:11;;;;;;;5.40;3.90;;;;;;;36.19;27.70;100953.34;5048288;28;20460;-67
2021/06/19 10:55:43;;;;;;;4.17;3.60;;;;;;;36.82;27.08;100956.41;5056540;28;20455;-68
2021/06/19 10:58:29;;;;;;;11.13;8.27;;;;;;;37.31;26.53;100947.97;5052268;28;20435;-68
2021/06/19 11:01:04;;;;;;;5.13;3.60;;;;;;;35.73;28.51;100963.13;5057505;28;20438;-67
2021/06/19 11:03:43;;;;;;;4.73;4.33;;;;;;;34.76;30.14;100967.38;5057415;28;20420;-68
2021/06/19 11:06:26;;;;;;;5.20;4.30;;;;;;;35.21;29.45;100957.97;5057375;28;20416;-67
2021/06/19 11:09:02;;;;;;;4.00;3.60;;;;;;;35.08;28.49;100969.06;5055804;28;20436;-68
2021/06/19 11:11:45;;;;;;;3.90;3.60;;;;;;;34.69;29.52;100947.28;5057412;28;20695;-68
2021/06/19 11:14:11;;;;;;;3.97;3.40;;;;;;;35.92;27.96;100946.00;5056193;28;20455;-67
2021/06/19 11:16:36;;;;;;;5.87;3.77;;;;;;;36.01;28.46;100945.13;5057103;28;20459;-70